Pineville, MO (64856)

1:27 PM CST on February 13, 2016 (GMT -0600)
Brush Creek | | Change Station
CLOSE
Current Station
Personal Weather Station
Location: Noel, MO
Elevation: 1056 ft
Nearby Weather Stations

Elev 1056 ft 36.51 °N, 94.34 °W | Updated 3 seconds ago

Clear
Clear
43.5 °F
Feels Like 41 °F
N
4.5
Wind Variable Wind from ESE
Gusts 4.9 mph

Today
High -- | Low -- °F
--% Chance of Precip.
Yesterday
High -- | Low -- °F
Precip. -- in
Pressure 30.40 in
Visibility 10.0 miles
Clouds Clear
Windchill 41 °F
Dew Point 7 °F
Humidity 22%
Rainfall 0.00 in
Snow Depth Not available.
7:08 AM 5:55 PM
Waxing Crescent, 33% visible
METAR KVBT 131915Z AUTO 13005KT 10SM CLR 06/M14 A3040 RMK AO1
Pressure 30.40 in
Visibility 10.0 miles
Clouds Clear
Windchill 41 °F
Dew Point 7 °F
Humidity 22%
Rainfall 0.00 in
Snow Depth Not available.
7:08 AM 5:55 PM
Waxing Crescent, 33% visible
METAR KVBT 131915Z AUTO 13005KT 10SM CLR 06/M14 A3040 RMK AO1

10-Day Weather Forecast

Almanac

Astronomy

Feb. 13, 2016 Rise Set
Actual Time
Civil Twilight
Nautical Twilight
Astronomical Twilight
Moon
Length of Visible Light
Length of Day
Tomorrow will be .
, % of the Moon is Illuminated

Today's Extremes

State Highs State Lows

Community

WunderPhotos

Upload Photos

1,892,642 photos uploaded!

WunderBlog® & News

Nearby

Air Quality

  Air Quality AQ Index Pollutant
Not available.

Snow Depth

Station Depth Elevation

Earthquake Activity

City Distance Mag. Time & Date
Minimum magnitude displayed is 2.5.

Coastal Water Temperatures

Place Temperature

Stations

Nearby Weather Stations

Station Location Temp. Windchill Dew Point Humidity Wind Precip. Elev Updated Type
                   

Watches & Warnings

There are currently no watches in effect.